Terminal Aerodrome Forecast
Issued by NWS

Home | Current Version | Previous Version | Text Only | Print | Product List | Glossary On
Versions: 1 2 3 4 5 6 7 8 9 10 11 12 13 14 15 16
000
FTUS41 KPBZ 251735
TAFLBE
TAF
KLBE 251735Z 2518/2618 08010KT P6SM OVC060
     FM260000 09005KT P6SM -SHRA OVC035
     FM260300 04004KT 4SM -RA OVC025
     FM261100 02005KT P6SM BKN050=

USA.gov is the U.S. government's official web portal to all federal, state and local government web resources and services.